Time;durP1;ratioP1;P1;durP2;ratioP2;P2;SDS_P1;SDS_P2;PMS_P1;PMS_P2;Temp;Humidity;BMP_temperature;BMP_pressure;BME280_temperature;BME280_humidity;BME280_pressure;Samples;Min_cycle;Max_cycle;Signal;HPM_P1;HPM_P2
2021/05/08 00:00:53;;;;;;;10.38;3.85;;;4.00;90.50;;;;;;5028689;28;20045;-83
2021/05/08 00:03:19;;;;;;;8.43;3.65;;;4.00;90.80;;;;;;5017600;28;20487;-83
2021/05/08 00:05:46;;;;;;;10.85;3.72;;;3.90;90.50;;;;;;5022728;28;20044;-83
2021/05/08 00:08:15;;;;;;;4.85;3.65;;;3.90;90.50;;;;;;5028005;28;20603;-83
2021/05/08 00:10:43;;;;;;;6.18;3.75;;;3.90;90.50;;;;;;5047232;28;20036;-84
2021/05/08 00:13:09;;;;;;;4.75;3.63;;;3.90;90.60;;;;;;5038510;28;20506;-83
2021/05/08 00:15:35;;;;;;;7.68;3.65;;;3.90;90.70;;;;;;5022029;28;20032;-83
2021/05/08 00:18:01;;;;;;;7.72;4.10;;;3.90;90.70;;;;;;5045594;28;20281;-83
2021/05/08 00:20:30;;;;;;;7.53;4.50;;;3.80;90.70;;;;;;5023497;28;20703;-84
2021/05/08 00:22:57;;;;;;;13.98;4.70;;;3.80;90.80;;;;;;5023120;28;20101;-83
2021/05/08 00:25:22;;;;;;;5.68;4.70;;;3.80;90.90;;;;;;5010384;28;20499;-84
2021/05/08 00:27:48;;;;;;;7.85;4.57;;;3.80;90.90;;;;;;5042705;28;20463;-83
2021/05/08 00:30:15;;;;;;;8.48;4.38;;;3.80;91.10;;;;;;5043987;28;20475;-83
2021/05/08 00:32:43;;;;;;;11.70;4.68;;;3.80;91.30;;;;;;5045396;28;20646;-83
2021/05/08 00:35:09;;;;;;;6.03;4.28;;;3.70;91.00;;;;;;5042856;28;20063;-84
2021/05/08 00:37:35;;;;;;;10.02;5.32;;;3.70;91.10;;;;;;5038765;28;20041;-83
2021/05/08 00:40:02;;;;;;;10.70;4.78;;;3.70;91.10;;;;;;5034619;28;20033;-83
2021/05/08 00:42:28;;;;;;;12.50;4.80;;;3.70;91.10;;;;;;5027237;28;20115;-83
2021/05/08 00:44:54;;;;;;;9.60;4.75;;;3.70;91.20;;;;;;5050086;28;20033;-83
2021/05/08 00:47:20;;;;;;;8.00;5.00;;;3.60;91.20;;;;;;5038694;28;20177;-82
2021/05/08 00:49:46;;;;;;;12.85;5.10;;;3.70;91.30;;;;;;5043578;28;20128;-84
2021/05/08 00:52:14;;;;;;;10.13;5.68;;;3.70;91.30;;;;;;5003907;28;20036;-83
2021/05/08 00:54:41;;;;;;;11.00;5.30;;;3.60;91.40;;;;;;5038626;28;20265;-83
2021/05/08 00:57:07;;;;;;;13.98;5.45;;;3.60;91.50;;;;;;5042071;28;20041;-84
2021/05/08 00:59:35;;;;;;;10.00;5.72;;;3.60;91.50;;;;;;5026189;28;20060;-82
2021/05/08 01:02:02;;;;;;;10.45;5.15;;;3.60;91.70;;;;;;5040759;28;20794;-84
2021/05/08 01:04:31;;;;;;;9.70;5.70;;;3.60;91.70;;;;;;5051969;28;20033;-84
2021/05/08 01:06:59;;;;;;;9.27;5.25;;;3.60;91.80;;;;;;5042522;28;21835;-83
2021/05/08 01:09:25;;;;;;;6.95;5.22;;;3.70;91.90;;;;;;5046397;28;20056;-84
2021/05/08 01:11:51;;;;;;;7.30;5.15;;;3.60;91.80;;;;;;5029085;28;20041;-85
2021/05/08 01:14:18;;;;;;;10.50;5.13;;;3.60;91.70;;;;;;5033593;28;20033;-83
2021/05/08 01:16:46;;;;;;;10.10;5.55;;;3.50;91.70;;;;;;5026863;28;20032;-83
2021/05/08 01:19:15;;;;;;;9.52;6.28;;;3.50;91.70;;;;;;5044640;28;20115;-83
2021/05/08 01:21:41;;;;;;;10.95;6.40;;;3.40;91.90;;;;;;5042062;28;20468;-83
2021/05/08 01:24:07;;;;;;;8.52;6.25;;;3.40;91.90;;;;;;5045892;28;20127;-86
2021/05/08 01:26:34;;;;;;;9.13;6.18;;;3.40;91.90;;;;;;5021738;28;20037;-82
2021/05/08 01:29:01;;;;;;;12.05;5.90;;;3.40;92.00;;;;;;5045901;28;20400;-86
2021/05/08 01:31:29;;;;;;;11.65;6.43;;;3.40;92.10;;;;;;5038628;28;20381;-84
2021/05/08 01:33:55;;;;;;;9.95;6.18;;;3.40;92.20;;;;;;5040264;28;20048;-85
2021/05/08 01:36:21;;;;;;;11.20;6.57;;;3.40;92.30;;;;;;5037229;28;20025;-85
2021/05/08 01:38:48;;;;;;;9.48;6.13;;;3.40;92.20;;;;;;5032385;28;20044;-83
2021/05/08 01:41:14;;;;;;;13.57;6.15;;;3.30;92.20;;;;;;4989358;28;20495;-82
2021/05/08 01:43:40;;;;;;;10.82;6.28;;;3.20;92.50;;;;;;5039896;28;20032;-82
2021/05/08 01:46:06;;;;;;;10.88;6.15;;;3.20;92.20;;;;;;5039107;28;20034;-83
2021/05/08 01:48:32;;;;;;;9.35;5.97;;;3.20;92.40;;;;;;5041915;28;20044;-83
2021/05/08 01:50:58;;;;;;;11.85;6.63;;;3.10;92.40;;;;;;5042300;28;20045;-86
2021/05/08 01:53:25;;;;;;;12.00;6.38;;;3.20;92.40;;;;;;5047645;28;20024;-83
2021/05/08 01:55:52;;;;;;;9.15;6.63;;;3.10;92.40;;;;;;5024245;28;20547;-85
2021/05/08 01:58:18;;;;;;;14.35;6.63;;;3.10;92.40;;;;;;5042126;28;20545;-82
2021/05/08 02:00:47;;;;;;;11.13;6.20;;;3.10;92.40;;;;;;5026015;28;20041;-82
2021/05/08 02:03:14;;;;;;;10.38;5.97;;;3.10;92.50;;;;;;5045604;28;20044;-83
2021/05/08 02:05:42;;;;;;;9.93;7.00;;;3.00;92.50;;;;;;5044477;28;20471;-82
2021/05/08 02:08:09;;;;;;;10.68;6.82;;;3.00;92.50;;;;;;5027391;28;20743;-83
2021/05/08 02:10:37;;;;;;;13.95;7.07;;;3.00;92.50;;;;;;5038002;28;20036;-85
2021/05/08 02:13:06;;;;;;;13.18;7.75;;;3.00;93.00;;;;;;5049042;28;20506;-83
2021/05/08 02:15:33;;;;;;;12.90;7.80;;;2.90;92.70;;;;;;5056450;28;20037;-83
2021/05/08 02:17:59;;;;;;;15.95;8.55;;;3.00;92.80;;;;;;5048473;28;20975;-84
2021/05/08 02:20:27;;;;;;;11.23;8.13;;;2.90;92.90;;;;;;5034192;28;20480;-82
2021/05/08 02:22:58;;;;;;;16.90;8.40;;;3.00;93.10;;;;;;5059961;28;20044;-85
2021/05/08 02:25:25;;;;;;;16.23;8.68;;;3.00;93.30;;;;;;5045235;28;20033;-83
2021/05/08 02:27:51;;;;;;;14.05;8.15;;;3.00;93.20;;;;;;5048813;28;20044;-83
2021/05/08 02:30:21;;;;;;;19.50;8.35;;;2.90;93.20;;;;;;5015788;28;20037;-84
2021/05/08 02:32:47;;;;;;;11.82;7.90;;;3.00;93.30;;;;;;5044373;28;20084;-82
2021/05/08 02:35:14;;;;;;;13.82;8.40;;;2.90;93.30;;;;;;5031027;28;20024;-82
2021/05/08 02:37:40;;;;;;;21.25;8.45;;;3.00;93.20;;;;;;5048900;28;20071;-82
2021/05/08 02:40:09;;;;;;;11.52;7.18;;;3.00;93.30;;;;;;5011945;28;20079;-82
2021/05/08 02:42:35;;;;;;;15.63;7.43;;;3.00;93.20;;;;;;5045929;28;20322;-82
2021/05/08 02:45:00;;;;;;;9.23;7.47;;;2.90;93.20;;;;;;5047656;28;20029;-84
2021/05/08 02:47:26;;;;;;;11.95;7.35;;;2.90;93.20;;;;;;5043146;28;20110;-82
2021/05/08 02:49:55;;;;;;;10.50;7.10;;;2.90;93.20;;;;;;5014780;28;20047;-84
2021/05/08 02:52:22;;;;;;;12.32;7.75;;;2.80;93.20;;;;;;5031829;28;20140;-82
2021/05/08 02:54:48;;;;;;;12.75;7.70;;;2.80;93.20;;;;;;5049833;28;20044;-86
2021/05/08 02:57:15;;;;;;;12.30;7.88;;;2.80;93.20;;;;;;5027203;28;20048;-84
2021/05/08 02:59:41;;;;;;;13.02;7.43;;;2.80;93.20;;;;;;5019773;28;20446;-82
2021/05/08 03:02:09;;;;;;;13.90;7.53;;;2.80;93.20;;;;;;5053722;28;20094;-84
2021/05/08 03:04:35;;;;;;;16.20;7.00;;;2.70;93.20;;;;;;5050296;28;20442;-83
2021/05/08 03:07:02;;;;;;;11.40;7.57;;;2.70;93.20;;;;;;5055967;28;20041;-82
2021/05/08 03:09:28;;;;;;;15.88;7.85;;;2.70;93.20;;;;;;5029959;28;20166;-82
2021/05/08 03:11:54;;;;;;;11.23;8.07;;;2.70;93.20;;;;;;5023802;28;20358;-84
2021/05/08 03:14:20;;;;;;;13.55;9.30;;;2.70;93.20;;;;;;5042078;28;20037;-82
2021/05/08 03:16:46;;;;;;;15.52;9.63;;;2.60;93.30;;;;;;5050095;28;20499;-82
2021/05/08 03:19:13;;;;;;;13.25;8.20;;;2.60;93.40;;;;;;5038763;28;20072;-83
2021/05/08 03:21:40;;;;;;;14.35;9.38;;;2.50;93.50;;;;;;5027701;28;20039;-82
2021/05/08 03:24:07;;;;;;;20.63;9.73;;;2.50;93.50;;;;;;5012024;28;20075;-82
2021/05/08 03:26:35;;;;;;;14.85;9.13;;;2.50;93.60;;;;;;5029812;28;20036;-83
2021/05/08 03:29:02;;;;;;;15.80;9.40;;;2.50;93.60;;;;;;5047149;28;20068;-81
2021/05/08 03:31:28;;;;;;;18.25;10.88;;;2.50;93.60;;;;;;5042431;28;20488;-83
2021/05/08 03:33:53;;;;;;;16.60;9.93;;;2.60;93.50;;;;;;5048371;28;20055;-83
2021/05/08 03:36:19;;;;;;;15.95;10.57;;;2.40;93.50;;;;;;5028438;28;20028;-82
2021/05/08 03:38:45;;;;;;;13.98;9.68;;;2.40;93.50;;;;;;5039421;28;20038;-83
2021/05/08 03:41:12;;;;;;;15.82;10.10;;;2.40;93.60;;;;;;5014294;28;20071;-83
2021/05/08 03:43:39;;;;;;;18.13;9.20;;;2.40;93.60;;;;;;5027677;28;20067;-83
2021/05/08 03:46:04;;;;;;;13.63;9.23;;;2.30;93.40;;;;;;5010387;28;20037;-83
2021/05/08 03:48:30;;;;;;;13.77;8.57;;;2.40;93.40;;;;;;5050182;28;20039;-82
2021/05/08 03:50:56;;;;;;;17.52;10.23;;;2.20;93.40;;;;;;5038298;28;20040;-83
2021/05/08 03:53:23;;;;;;;15.18;10.32;;;2.20;93.40;;;;;;5041146;28;20033;-82
2021/05/08 03:55:51;;;;;;;20.52;11.52;;;2.20;93.60;;;;;;5030170;28;20124;-83
2021/05/08 03:58:25;;;;;;;20.95;11.77;;;2.10;93.70;;;;;;5037400;28;20076;-82
2021/05/08 04:00:51;;;;;;;24.10;14.05;;;2.20;93.90;;;;;;5064236;28;20040;-84
2021/05/08 04:03:17;;;;;;;25.88;15.38;;;2.30;94.10;;;;;;5049908;28;20032;-83
2021/05/08 04:05:43;;;;;;;27.88;14.98;;;2.30;94.40;;;;;;5042730;28;20045;-83
2021/05/08 04:08:09;;;;;;;23.60;14.63;;;2.40;94.30;;;;;;5042628;28;20041;-83
2021/05/08 04:10:35;;;;;;;28.83;15.20;;;2.40;94.10;;;;;;5022714;28;20046;-83
2021/05/08 04:13:02;;;;;;;25.73;14.80;;;2.50;94.00;;;;;;5017473;28;20033;-83
2021/05/08 04:15:28;;;;;;;24.27;13.30;;;2.70;94.00;;;;;;5007656;28;20059;-82
2021/05/08 04:17:57;;;;;;;26.30;13.85;;;2.60;94.00;;;;;;5036955;28;20376;-83
2021/05/08 04:20:23;;;;;;;21.90;12.43;;;2.60;93.90;;;;;;5042993;28;20043;-83
2021/05/08 04:22:49;;;;;;;23.10;14.07;;;2.60;93.90;;;;;;5038344;28;20032;-84
2021/05/08 04:25:15;;;;;;;22.08;12.85;;;2.70;93.90;;;;;;5027841;28;20427;-82
2021/05/08 04:27:42;;;;;;;20.98;14.13;;;2.70;93.90;;;;;;5041878;28;20037;-83
2021/05/08 04:30:09;;;;;;;22.67;14.65;;;2.70;94.00;;;;;;5028626;28;21268;-83
2021/05/08 04:32:36;;;;;;;22.33;14.65;;;2.70;94.00;;;;;;5022511;28;20041;-83
2021/05/08 04:35:02;;;;;;;20.65;15.07;;;2.70;94.00;;;;;;5024546;28;20114;-83
2021/05/08 04:37:35;;;;;;;23.88;15.00;;;2.90;94.10;;;;;;5062992;28;20411;-83
2021/05/08 04:40:05;;;;;;;29.50;16.92;;;2.90;94.10;;;;;;5017292;28;20045;-83
2021/05/08 04:42:30;;;;;;;19.58;14.05;;;3.00;94.00;;;;;;5045452;28;20037;-83
2021/05/08 04:44:56;;;;;;;21.08;13.85;;;3.00;94.00;;;;;;5047954;28;20082;-83
2021/05/08 04:47:23;;;;;;;18.63;13.60;;;3.10;94.00;;;;;;5007179;28;20136;-83
2021/05/08 04:49:51;;;;;;;19.33;13.70;;;3.10;93.90;;;;;;5041818;28;20898;-83
2021/05/08 04:52:17;;;;;;;19.58;13.57;;;3.20;93.80;;;;;;5027326;28;20040;-83
2021/05/08 04:54:43;;;;;;;18.50;13.15;;;3.20;93.70;;;;;;5038246;28;20037;-83
2021/05/08 04:57:09;;;;;;;21.90;14.88;;;3.30;93.70;;;;;;5038819;28;20167;-83
2021/05/08 04:59:35;;;;;;;25.00;15.35;;;3.30;93.70;;;;;;5014953;28;20037;-83
2021/05/08 05:02:02;;;;;;;23.75;15.05;;;3.40;93.80;;;;;;5041648;28;20580;-83
2021/05/08 05:04:35;;;;;;;20.13;15.23;;;3.30;93.80;;;;;;5048677;28;20044;-82
2021/05/08 05:07:00;;;;;;;19.77;14.40;;;3.50;93.80;;;;;;5063867;28;20193;-83
2021/05/08 05:09:32;;;;;;;24.60;14.55;;;3.50;93.80;;;;;;5022617;28;20059;-83
2021/05/08 05:12:03;;;;;;;18.42;13.93;;;3.60;93.70;;;;;;5040366;28;20044;-82
2021/05/08 05:14:28;;;;;;;19.45;14.52;;;3.70;93.60;;;;;;5047727;28;20445;-82
2021/05/08 05:16:55;;;;;;;18.73;14.65;;;3.70;93.50;;;;;;5044759;28;20047;-83
2021/05/08 05:19:21;;;;;;;24.73;15.00;;;3.80;93.50;;;;;;5036754;28;20117;-83
2021/05/08 05:21:47;;;;;;;20.83;13.68;;;3.80;93.40;;;;;;5034916;28;20439;-83
2021/05/08 05:24:13;;;;;;;20.35;13.65;;;3.90;93.50;;;;;;5044725;28;20025;-83
2021/05/08 05:26:40;;;;;;;20.80;14.13;;;3.90;93.40;;;;;;5052569;28;20529;-82
2021/05/08 05:29:10;;;;;;;22.13;13.88;;;4.00;93.30;;;;;;5040352;28;20033;-82
2021/05/08 05:31:40;;;;;;;21.40;12.98;;;4.10;93.30;;;;;;5041657;28;20498;-83
2021/05/08 05:34:06;;;;;;;19.83;12.95;;;4.10;93.20;;;;;;5043668;28;20056;-83
2021/05/08 05:36:37;;;;;;;24.05;13.98;;;4.20;93.20;;;;;;5036507;28;20037;-83
2021/05/08 05:39:03;;;;;;;23.67;13.07;;;4.30;93.10;;;;;;5026906;28;20125;-83
2021/05/08 05:41:29;;;;;;;20.67;13.30;;;4.40;93.10;;;;;;5043850;28;20036;-83
2021/05/08 05:43:55;;;;;;;23.05;14.23;;;4.40;93.00;;;;;;5045831;28;20051;-82
2021/05/08 05:46:21;;;;;;;20.05;13.25;;;4.60;93.00;;;;;;5041749;28;20037;-82
2021/05/08 05:48:47;;;;;;;21.50;13.13;;;4.60;92.90;;;;;;5032301;28;20037;-82
2021/05/08 05:51:14;;;;;;;26.65;14.13;;;4.70;92.90;;;;;;5017444;28;20037;-82
2021/05/08 05:53:40;;;;;;;16.83;12.82;;;4.90;92.90;;;;;;5023090;28;20328;-82
2021/05/08 05:56:06;;;;;;;17.02;11.50;;;4.90;92.70;;;;;;5030537;28;20512;-83
2021/05/08 05:58:37;;;;;;;18.50;12.60;;;5.10;92.70;;;;;;5043581;28;20029;-82
2021/05/08 06:01:03;;;;;;;19.88;13.50;;;5.20;92.50;;;;;;5041920;28;20120;-82
2021/05/08 06:03:29;;;;;;;18.02;11.73;;;5.30;92.40;;;;;;5065039;28;20041;-82
2021/05/08 06:05:54;;;;;;;16.15;11.27;;;5.40;92.30;;;;;;5054568;28;20461;-82
2021/05/08 06:08:20;;;;;;;27.05;15.05;;;5.60;92.10;;;;;;5043500;28;20766;-82
2021/05/08 06:10:46;;;;;;;18.38;12.18;;;5.60;92.00;;;;;;5045421;28;20033;-83
2021/05/08 06:13:12;;;;;;;18.60;10.60;;;5.70;91.80;;;;;;5044744;28;20060;-83
2021/05/08 06:15:39;;;;;;;16.58;10.93;;;5.90;91.80;;;;;;5010786;28;20048;-84
2021/05/08 06:18:06;;;;;;;16.25;11.07;;;6.00;91.60;;;;;;5048628;28;20342;-82
2021/05/08 06:20:32;;;;;;;13.65;10.75;;;6.10;91.80;;;;;;5046565;28;20518;-83
2021/05/08 06:22:57;;;;;;;16.05;11.38;;;6.20;91.30;;;;;;5040749;28;20148;-82
2021/05/08 06:25:24;;;;;;;14.40;10.27;;;6.30;91.10;;;;;;5032997;28;20488;-82
2021/05/08 06:27:50;;;;;;;16.67;11.18;;;6.50;90.90;;;;;;5061115;28;20558;-82
2021/05/08 06:30:15;;;;;;;14.23;10.23;;;6.50;90.70;;;;;;5036561;28;20037;-82
2021/05/08 06:32:41;;;;;;;19.60;11.13;;;6.60;90.60;;;;;;5042338;28;20029;-82
2021/05/08 06:35:07;;;;;;;15.93;10.75;;;6.70;90.50;;;;;;5048063;28;20067;-82
2021/05/08 06:37:33;;;;;;;16.00;11.15;;;6.80;90.30;;;;;;5040875;28;20060;-83
2021/05/08 06:39:59;;;;;;;21.58;12.32;;;7.00;90.20;;;;;;5027832;28;20545;-82
2021/05/08 06:42:25;;;;;;;16.35;11.02;;;7.10;90.10;;;;;;5023219;28;20033;-82
2021/05/08 06:44:52;;;;;;;18.05;11.73;;;7.20;90.00;;;;;;5039172;28;20303;-82
2021/05/08 06:47:18;;;;;;;16.60;12.07;;;7.30;89.60;;;;;;5042728;28;20315;-82
2021/05/08 06:49:45;;;;;;;15.63;12.75;;;7.40;89.50;;;;;;5023419;28;20049;-82
2021/05/08 06:52:11;;;;;;;15.93;11.25;;;7.60;89.20;;;;;;5032699;28;20041;-83
2021/05/08 06:54:37;;;;;;;18.20;12.02;;;7.70;89.00;;;;;;5047897;28;20032;-82
2021/05/08 06:57:04;;;;;;;20.48;12.35;;;7.90;88.80;;;;;;5053113;28;20040;-82
2021/05/08 06:59:33;;;;;;;16.13;11.45;;;8.00;88.00;;;;;;5047176;28;20577;-82
2021/05/08 07:01:58;;;;;;;17.05;12.20;;;8.20;87.40;;;;;;5047425;28;20091;-82
2021/05/08 07:04:24;;;;;;;13.98;12.10;;;8.30;86.90;;;;;;5032654;28;20041;-82
2021/05/08 07:06:50;;;;;;;13.25;10.82;;;8.40;86.60;;;;;;5059576;28;20044;-82
2021/05/08 07:09:16;;;;;;;14.88;10.10;;;8.50;86.50;;;;;;5043206;28;20044;-83
2021/05/08 07:11:42;;;;;;;16.42;10.15;;;8.70;86.20;;;;;;5045518;28;20048;-81
2021/05/08 07:14:08;;;;;;;13.82;9.93;;;8.80;85.30;;;;;;5047923;28;20326;-82
2021/05/08 07:16:33;;;;;;;17.10;10.25;;;8.90;84.80;;;;;;5025525;28;20069;-82
2021/05/08 07:19:00;;;;;;;12.82;8.77;;;9.00;84.00;;;;;;5037547;28;20039;-82
2021/05/08 07:21:25;;;;;;;12.88;9.57;;;9.20;82.60;;;;;;5044540;28;20025;-82
2021/05/08 07:23:51;;;;;;;13.30;9.27;;;9.30;82.70;;;;;;5050085;28;20414;-82
2021/05/08 07:26:18;;;;;;;12.18;8.90;;;9.40;82.40;;;;;;5049476;28;20029;-82
2021/05/08 07:28:45;;;;;;;10.38;9.13;;;9.50;81.30;;;;;;5046552;28;20037;-81
2021/05/08 07:31:10;;;;;;;13.38;9.57;;;9.60;80.50;;;;;;5030776;28;20123;-82
2021/05/08 07:33:36;;;;;;;11.95;8.50;;;9.70;80.70;;;;;;5061587;28;20041;-82
2021/05/08 07:36:02;;;;;;;13.35;8.68;;;9.80;80.70;;;;;;5042595;28;20103;-83
2021/05/08 07:38:28;;;;;;;13.25;8.85;;;9.90;79.70;;;;;;5045545;28;20036;-82
2021/05/08 07:40:54;;;;;;;10.60;8.45;;;10.00;78.30;;;;;;5053018;28;20325;-82
2021/05/08 07:43:21;;;;;;;14.25;9.15;;;10.10;78.90;;;;;;5046251;28;20029;-82
2021/05/08 07:45:48;;;;;;;10.75;8.95;;;10.20;78.30;;;;;;5025361;28;20044;-83
2021/05/08 07:48:14;;;;;;;13.98;9.13;;;10.30;78.70;;;;;;5008710;28;20037;-82
2021/05/08 07:50:40;;;;;;;11.30;9.35;;;10.40;79.00;;;;;;5049372;28;20037;-82
2021/05/08 07:53:06;;;;;;;13.80;9.57;;;10.60;77.60;;;;;;5048037;28;20035;-82
2021/05/08 07:55:33;;;;;;;14.45;9.90;;;10.70;77.30;;;;;;5052857;28;20056;-82
2021/05/08 07:58:06;;;;;;;12.80;8.75;;;10.80;76.10;;;;;;5053626;28;20033;-82
2021/05/08 08:00:34;;;;;;;12.70;8.85;;;10.90;75.50;;;;;;5047976;28;20310;-82
2021/05/08 08:03:17;;;;;;;10.48;8.90;;;10.90;75.90;;;;;;5030925;28;20506;-84
2021/05/08 08:05:43;;;;;;;10.10;7.93;;;11.10;76.10;;;;;;5029361;28;20117;-83
2021/05/08 08:08:09;;;;;;;12.38;9.52;;;11.10;74.90;;;;;;5048073;28;20033;-81
2021/05/08 08:10:35;;;;;;;14.02;9.52;;;11.20;74.70;;;;;;5043146;28;20124;-82
2021/05/08 08:13:01;;;;;;;13.00;9.13;;;11.30;74.30;;;;;;5008191;28;20036;-82
2021/05/08 08:15:26;;;;;;;11.93;8.65;;;11.30;74.20;;;;;;5030113;28;20523;-82
2021/05/08 08:17:52;;;;;;;13.63;9.13;;;11.40;73.50;;;;;;5042909;28;20080;-82
2021/05/08 08:20:19;;;;;;;15.10;8.13;;;11.50;72.60;;;;;;5043962;28;20065;-81
2021/05/08 08:22:45;;;;;;;10.75;7.95;;;11.50;71.60;;;;;;5032842;28;20067;-83
2021/05/08 08:25:12;;;;;;;9.18;7.22;;;11.50;70.90;;;;;;5031013;28;20029;-82
2021/05/08 08:27:39;;;;;;;11.65;7.68;;;11.50;70.80;;;;;;5036193;28;20488;-82
2021/05/08 08:30:07;;;;;;;10.45;7.10;;;11.60;71.50;;;;;;5014572;28;20068;-82
2021/05/08 08:32:33;;;;;;;13.10;7.65;;;11.60;70.30;;;;;;5045685;28;20047;-82
2021/05/08 08:34:59;;;;;;;10.65;6.30;;;11.70;68.90;;;;;;5029555;28;20170;-82
2021/05/08 08:37:24;;;;;;;10.45;6.53;;;11.80;69.20;;;;;;5021144;28;20101;-82
2021/05/08 08:39:50;;;;;;;9.48;5.93;;;11.80;67.80;;;;;;5054749;28;20060;-82
2021/05/08 08:42:17;;;;;;;9.93;6.20;;;11.80;66.60;;;;;;5053918;28;20029;-84
2021/05/08 08:44:43;;;;;;;9.35;5.88;;;11.90;67.10;;;;;;5033626;28;20051;-82
2021/05/08 08:47:30;;;;;;;11.00;6.00;;;11.90;66.30;;;;;;5046356;28;20124;-82
2021/05/08 08:50:06;;;;;;;7.70;6.05;;;11.90;64.90;;;;;;5050862;28;20506;-84
2021/05/08 08:52:33;;;;;;;9.75;6.22;;;12.00;64.50;;;;;;5055731;28;20045;-82
2021/05/08 08:54:59;;;;;;;10.15;6.30;;;12.00;64.10;;;;;;5044487;28;20671;-82
2021/05/08 08:57:35;;;;;;;8.70;6.38;;;12.00;63.90;;;;;;5026986;28;20045;-82
2021/05/08 09:00:04;;;;;;;10.02;6.15;;;12.10;64.30;;;;;;5049512;28;20395;-80
2021/05/08 09:02:30;;;;;;;12.35;7.45;;;12.10;64.50;;;;;;5059473;28;20082;-83
2021/05/08 09:04:58;;;;;;;12.68;8.25;;;12.20;64.00;;;;;;5039262;28;20432;-82
2021/05/08 09:07:29;;;;;;;12.57;8.57;;;12.30;63.60;;;;;;5055944;28;20532;-82
2021/05/08 09:09:56;;;;;;;14.68;8.90;;;12.40;63.60;;;;;;5057305;28;20490;-82
2021/05/08 09:12:26;;;;;;;15.18;8.90;;;12.50;63.50;;;;;;5045261;28;20500;-83
2021/05/08 09:14:53;;;;;;;12.07;8.32;;;12.50;62.80;;;;;;5040332;28;20487;-82
2021/05/08 09:17:25;;;;;;;14.88;9.95;;;12.50;61.50;;;;;;5052657;28;20203;-84
2021/05/08 09:20:03;;;;;;;18.52;9.52;;;12.50;62.30;;;;;;5053506;28;20067;-81
2021/05/08 09:22:43;;;;;;;16.20;9.57;;;12.60;62.70;;;;;;5038707;28;20047;-82
2021/05/08 09:25:11;;;;;;;15.98;9.73;;;12.70;62.50;;;;;;5053075;28;20059;-84
2021/05/08 09:27:44;;;;;;;14.70;8.90;;;12.70;62.30;;;;;;5043509;28;20328;-83
2021/05/08 09:30:22;;;;;;;14.10;9.07;;;12.70;63.20;;;;;;5064175;28;20518;-81
2021/05/08 09:32:56;;;;;;;14.55;9.02;;;12.80;62.30;;;;;;5064479;28;20439;-85
2021/05/08 09:35:23;;;;;;;16.23;9.50;;;12.90;60.70;;;;;;5043011;28;20620;-85
2021/05/08 09:37:51;;;;;;;16.42;9.65;;;12.90;61.00;;;;;;5056704;28;20052;-81
2021/05/08 09:40:23;;;;;;;15.15;9.40;;;12.90;61.20;;;;;;5050975;28;20059;-81
2021/05/08 09:42:57;;;;;;;13.67;9.83;;;13.00;60.00;;;;;;5053125;28;20430;-82
2021/05/08 09:45:25;;;;;;;15.48;10.32;;;13.00;60.40;;;;;;5036139;28;20037;-81
2021/05/08 09:47:52;;;;;;;18.38;10.77;;;13.00;60.00;;;;;;5043383;28;20043;-83
2021/05/08 09:50:24;;;;;;;16.52;9.80;;;13.00;59.30;;;;;;5044286;28;20112;-81
2021/05/08 09:52:51;;;;;;;15.07;10.07;;;12.90;59.60;;;;;;5037665;28;20061;-80
2021/05/08 09:55:17;;;;;;;16.70;10.55;;;12.90;59.50;;;;;;5035684;28;20037;-80
2021/05/08 09:58:00;;;;;;;14.80;9.82;;;12.90;60.30;;;;;;5031807;28;20497;-79
2021/05/08 10:00:31;;;;;;;;;;;13.00;60.10;;;;;;5031571;28;20592;-79
2021/05/08 10:03:14;;;;;;;21.77;11.10;;;13.00;60.70;;;;;;5038093;28;19971;-79
2021/05/08 10:06:00;;;;;;;18.98;11.25;;;13.00;60.30;;;;;;5038778;28;20056;-80
2021/05/08 10:08:26;;;;;;;16.52;11.23;;;13.00;60.00;;;;;;5030930;28;20045;-82
2021/05/08 10:10:52;;;;;;;16.15;11.18;;;13.00;60.40;;;;;;5018516;28;20033;-85
2021/05/08 10:13:18;;;;;;;18.60;11.23;;;13.00;60.50;;;;;;5018408;28;20069;-84
2021/05/08 10:15:45;;;;;;;19.92;12.27;;;13.00;60.40;;;;;;5038677;28;20036;-82
2021/05/08 10:18:12;;;;;;;16.70;10.70;;;13.00;60.90;;;;;;5043282;28;20090;-81
2021/05/08 10:20:42;;;;;;;17.67;11.13;;;13.10;60.70;;;;;;5031577;28;20262;-82
2021/05/08 10:23:11;;;;;;;20.58;12.18;;;13.10;60.70;;;;;;5052261;28;20418;-79
2021/05/08 10:25:38;;;;;;;17.30;12.73;;;13.20;60.20;;;;;;5042678;28;20021;-80
2021/05/08 10:28:05;;;;;;;21.08;12.45;;;13.20;59.80;;;;;;5055840;28;20028;-79
2021/05/08 10:30:34;;;;;;;19.08;11.90;;;13.30;60.10;;;;;;5045461;28;20068;-79
2021/05/08 10:33:06;;;;;;;18.65;12.20;;;13.40;59.70;;;;;;5041950;28;20033;-80
2021/05/08 10:35:44;;;;;;;18.63;11.75;;;13.50;60.20;;;;;;5066451;28;20052;-79
2021/05/08 10:38:16;;;;;;;20.17;12.75;;;13.60;59.10;;;;;;5046576;28;20043;-81
2021/05/08 10:40:54;;;;;;;18.52;12.88;;;13.70;58.80;;;;;;5043794;28;20133;-79
2021/05/08 10:43:42;;;;;;;18.77;12.27;;;13.90;58.20;;;;;;5040431;28;20037;-78
2021/05/08 10:46:10;;;;;;;21.58;13.30;;;14.00;58.70;;;;;;5039559;28;20549;-81
2021/05/08 10:48:36;;;;;;;19.63;13.20;;;14.10;58.90;;;;;;5037874;28;20964;-83
2021/05/08 10:51:03;;;;;;;17.15;11.75;;;14.20;58.50;;;;;;5041166;28;20048;-83
2021/05/08 10:53:42;;;;;;;21.90;11.93;;;14.30;58.70;;;;;;5047789;28;20095;-78
2021/05/08 10:56:32;;;;;;;19.88;11.80;;;14.30;57.60;;;;;;5061011;28;20136;-81
2021/05/08 10:59:06;;;;;;;20.23;11.82;;;14.50;56.60;;;;;;5044001;28;20116;-82
2021/05/08 11:01:50;;;;;;;16.58;11.00;;;14.50;57.60;;;;;;5054420;28;20040;-79
2021/05/08 11:04:16;;;;;;;17.23;10.48;;;14.60;57.50;;;;;;5035464;28;20038;-80
2021/05/08 11:06:42;;;;;;;17.25;10.63;;;14.70;57.00;;;;;;5057547;28;20045;-80
2021/05/08 11:09:28;;;;;;;17.75;10.88;;;14.70;56.80;;;;;;5042319;28;20029;-78
2021/05/08 11:11:54;;;;;;;22.48;10.27;;;14.70;55.50;;;;;;5033129;28;20033;-81
2021/05/08 11:14:52;;;;;;;15.38;9.52;;;14.70;55.20;;;;;;5052724;28;20094;-79
2021/05/08 11:17:18;;;;;;;16.00;9.95;;;14.60;55.30;;;;;;5041708;28;20033;-80
2021/05/08 11:19:44;;;;;;;19.48;10.70;;;14.60;56.00;;;;;;5054668;28;20066;-82
2021/05/08 11:22:10;;;;;;;16.63;10.00;;;14.60;55.30;;;;;;5037502;28;20067;-78
2021/05/08 11:24:38;;;;;;;20.58;10.43;;;14.50;55.20;;;;;;5034447;28;20051;-78
2021/05/08 11:27:20;;;;;;;20.70;10.75;;;14.50;55.10;;;;;;5044531;28;20072;-78
2021/05/08 11:29:46;;;;;;;17.40;9.43;;;14.60;55.20;;;;;;5061399;28;20037;-81
2021/05/08 11:32:11;;;;;;;22.13;9.80;;;14.60;55.70;;;;;;5046717;28;20041;-78
2021/05/08 11:34:43;;;;;;;16.13;9.93;;;14.70;56.00;;;;;;5051537;28;20040;-81
2021/05/08 11:37:14;;;;;;;13.65;8.60;;;14.70;55.10;;;;;;5047982;28;20479;-78
2021/05/08 11:39:47;;;;;;;13.55;8.05;;;14.70;55.20;;;;;;5051798;28;20483;-77
2021/05/08 11:42:16;;;;;;;;;;;14.60;55.00;;;;;;5049898;28;20116;-78
2021/05/08 11:44:53;;;;;;;10.63;6.47;;;14.60;54.90;;;;;;5049406;28;19920;-81
2021/05/08 11:47:30;;;;;;;10.82;6.65;;;14.40;54.30;;;;;;5053128;28;20411;-78
2021/05/08 11:50:14;;;;;;;12.52;6.78;;;14.20;54.50;;;;;;5046855;28;20422;-77
2021/05/08 11:52:48;;;;;;;9.88;6.63;;;14.20;54.40;;;;;;5044000;28;20176;-81
2021/05/08 11:55:16;;;;;;;9.82;6.15;;;14.20;54.50;;;;;;5046635;28;20048;-77
2021/05/08 11:57:46;;;;;;;10.40;7.18;;;14.20;54.90;;;;;;5052999;28;20472;-78
2021/05/08 12:00:18;;;;;;;9.00;6.03;;;14.20;55.10;;;;;;5052113;28;20045;-77
2021/05/08 12:02:44;;;;;;;8.52;5.53;;;14.10;54.50;;;;;;5047030;28;20032;-82
2021/05/08 12:05:11;;;;;;;7.25;4.95;;;14.10;53.50;;;;;;5042328;28;20036;-79
2021/05/08 12:07:42;;;;;;;8.13;5.25;;;14.10;53.30;;;;;;5039513;28;20043;-80
2021/05/08 12:10:14;;;;;;;8.45;5.00;;;14.00;54.00;;;;;;5040891;28;20332;-80
2021/05/08 12:12:48;;;;;;;11.10;5.97;;;13.90;53.80;;;;;;5053589;28;20137;-83
2021/05/08 12:15:20;;;;;;;7.95;6.25;;;13.90;53.60;;;;;;5043221;28;20037;-80
2021/05/08 12:17:48;;;;;;;7.18;5.45;;;13.80;53.40;;;;;;5048459;28;20036;-79
2021/05/08 12:20:17;;;;;;;9.38;5.80;;;13.80;54.20;;;;;;5047821;28;20109;-78
2021/05/08 12:22:43;;;;;;;8.27;5.50;;;13.80;55.30;;;;;;5043145;28;20855;-81
2021/05/08 12:25:28;;;;;;;12.55;6.20;;;13.90;55.30;;;;;;5046701;28;20033;-78
2021/05/08 12:28:20;;;;;;;8.30;5.65;;;14.00;55.10;;;;;;5045525;28;20040;-84
2021/05/08 12:30:50;;;;;;;8.75;6.30;;;13.90;54.80;;;;;;5055753;28;20759;-79
2021/05/08 12:33:23;;;;;;;8.23;6.00;;;13.90;55.10;;;;;;5040258;28;20060;-78
2021/05/08 12:35:50;;;;;;;8.98;6.25;;;13.80;55.50;;;;;;5041308;28;20524;-82
2021/05/08 12:38:16;;;;;;;9.73;6.43;;;13.70;56.50;;;;;;5025736;28;20482;-83
2021/05/08 12:40:43;;;;;;;8.73;5.72;;;13.70;57.20;;;;;;5047559;28;20036;-86
2021/05/08 12:43:08;;;;;;;7.95;5.55;;;13.70;57.80;;;;;;5044871;28;20116;-82
2021/05/08 12:45:35;;;;;;;8.85;5.47;;;13.70;57.80;;;;;;5042992;28;20194;-79